sensor_id;sensor_type;location;lat;lon;timestamp;temperature;humidity
15107;DHT22;7654;45.308;-75.096;2023-11-21T00:01:49;-6.30;99.90
15107;DHT22;7654;45.308;-75.096;2023-11-21T00:04:20;-6.30;99.90
15107;DHT22;7654;45.308;-75.096;2023-11-21T00:06:51;-6.20;99.90
15107;DHT22;7654;45.308;-75.096;2023-11-21T00:09:21;-6.30;99.90
15107;DHT22;7654;45.308;-75.096;2023-11-21T00:11:52;-6.20;99.90
15107;DHT22;7654;45.308;-75.096;2023-11-21T00:14:24;-6.10;99.90
15107;DHT22;7654;45.308;-75.096;2023-11-21T00:16:59;-6.00;99.90
15107;DHT22;7654;45.308;-75.096;2023-11-21T00:19:31;-6.10;99.90
15107;DHT22;7654;45.308;-75.096;2023-11-21T00:22:01;-6.20;99.90
15107;DHT22;7654;45.308;-75.096;2023-11-21T00:24:32;-6.20;99.90
15107;DHT22;7654;45.308;-75.096;2023-11-21T00:27:03;-6.30;99.90
15107;DHT22;7654;45.308;-75.096;2023-11-21T00:29:34;-6.20;99.90
15107;DHT22;7654;45.308;-75.096;2023-11-21T00:32:08;-6.20;99.90
15107;DHT22;7654;45.308;-75.096;2023-11-21T00:34:38;-6.10;99.90
15107;DHT22;7654;45.308;-75.096;2023-11-21T00:37:10;-6.20;99.90
15107;DHT22;7654;45.308;-75.096;2023-11-21T00:39:41;-6.20;99.90
15107;DHT22;7654;45.308;-75.096;2023-11-21T00:42:12;-6.30;99.90
15107;DHT22;7654;45.308;-75.096;2023-11-21T00:44:42;-6.50;99.90
15107;DHT22;7654;45.308;-75.096;2023-11-21T00:47:14;-6.60;99.90
15107;DHT22;7654;45.308;-75.096;2023-11-21T00:49:45;-6.70;99.90
15107;DHT22;7654;45.308;-75.096;2023-11-21T00:52:18;-6.80;99.90
15107;DHT22;7654;45.308;-75.096;2023-11-21T00:54:48;-6.90;99.90
15107;DHT22;7654;45.308;-75.096;2023-11-21T00:57:18;-6.90;99.90
15107;DHT22;7654;45.308;-75.096;2023-11-21T00:59:49;-6.80;99.90
15107;DHT22;7654;45.308;-75.096;2023-11-21T01:02:21;-6.80;99.90
15107;DHT22;7654;45.308;-75.096;2023-11-21T01:04:53;-6.80;99.90
15107;DHT22;7654;45.308;-75.096;2023-11-21T01:07:24;-6.80;99.90
15107;DHT22;7654;45.308;-75.096;2023-11-21T01:09:56;-6.90;99.90
15107;DHT22;7654;45.308;-75.096;2023-11-21T01:12:26;-7.00;99.90
15107;DHT22;7654;45.308;-75.096;2023-11-21T01:14:57;-7.10;99.90
15107;DHT22;7654;45.308;-75.096;2023-11-21T01:17:30;-7.20;99.90
15107;DHT22;7654;45.308;-75.096;2023-11-21T01:20:03;-7.10;99.90
15107;DHT22;7654;45.308;-75.096;2023-11-21T01:22:39;-7.20;99.90
15107;DHT22;7654;45.308;-75.096;2023-11-21T01:25:10;-7.20;99.90
15107;DHT22;7654;45.308;-75.096;2023-11-21T01:27:42;-7.10;99.90
15107;DHT22;7654;45.308;-75.096;2023-11-21T01:30:13;-7.10;99.90
15107;DHT22;7654;45.308;-75.096;2023-11-21T01:32:46;-7.00;99.90
15107;DHT22;7654;45.308;-75.096;2023-11-21T01:35:16;-7.00;99.90
15107;DHT22;7654;45.308;-75.096;2023-11-21T01:37:47;-6.90;99.90
15107;DHT22;7654;45.308;-75.096;2023-11-21T01:40:18;-6.90;99.90
15107;DHT22;7654;45.308;-75.096;2023-11-21T01:42:49;-6.90;99.90
15107;DHT22;7654;45.308;-75.096;2023-11-21T01:45:20;-6.90;99.90
15107;DHT22;7654;45.308;-75.096;2023-11-21T01:47:52;-6.90;99.90
15107;DHT22;7654;45.308;-75.096;2023-11-21T01:50:24;-7.00;99.90
15107;DHT22;7654;45.308;-75.096;2023-11-21T01:52:55;-7.10;99.90
15107;DHT22;7654;45.308;-75.096;2023-11-21T01:55:27;-7.20;99.90
15107;DHT22;7654;45.308;-75.096;2023-11-21T01:57:58;-7.40;99.90
15107;DHT22;7654;45.308;-75.096;2023-11-21T02:00:29;-7.50;99.90
15107;DHT22;7654;45.308;-75.096;2023-11-21T02:03:01;-7.50;99.90
15107;DHT22;7654;45.308;-75.096;2023-11-21T02:05:32;-7.60;99.90
15107;DHT22;7654;45.308;-75.096;2023-11-21T02:08:03;-7.60;99.90
15107;DHT22;7654;45.308;-75.096;2023-11-21T02:10:34;-7.70;99.90
15107;DHT22;7654;45.308;-75.096;2023-11-21T02:13:05;-7.70;99.90
15107;DHT22;7654;45.308;-75.096;2023-11-21T02:15:35;-7.80;99.90
15107;DHT22;7654;45.308;-75.096;2023-11-21T02:18:08;-7.80;99.90
15107;DHT22;7654;45.308;-75.096;2023-11-21T02:20:39;-7.60;99.90
15107;DHT22;7654;45.308;-75.096;2023-11-21T02:23:12;-7.50;99.90
15107;DHT22;7654;45.308;-75.096;2023-11-21T02:25:43;-7.50;99.90
15107;DHT22;7654;45.308;-75.096;2023-11-21T02:28:14;-7.40;99.90
15107;DHT22;7654;45.308;-75.096;2023-11-21T02:30:54;-7.40;99.90
15107;DHT22;7654;45.308;-75.096;2023-11-21T02:33:26;-7.30;99.90
15107;DHT22;7654;45.308;-75.096;2023-11-21T02:35:57;-7.30;99.90
15107;DHT22;7654;45.308;-75.096;2023-11-21T02:38:29;-7.40;99.90
15107;DHT22;7654;45.308;-75.096;2023-11-21T02:40:59;-7.50;99.90
15107;DHT22;7654;45.308;-75.096;2023-11-21T02:43:30;-7.60;99.90
15107;DHT22;7654;45.308;-75.096;2023-11-21T02:46:00;-7.60;99.90
15107;DHT22;7654;45.308;-75.096;2023-11-21T02:48:31;-7.70;99.90
15107;DHT22;7654;45.308;-75.096;2023-11-21T02:51:01;-7.80;99.90
15107;DHT22;7654;45.308;-75.096;2023-11-21T02:53:33;-7.70;99.90
15107;DHT22;7654;45.308;-75.096;2023-11-21T02:56:03;-7.80;99.90
15107;DHT22;7654;45.308;-75.096;2023-11-21T02:58:34;-7.90;99.90
15107;DHT22;7654;45.308;-75.096;2023-11-21T03:01:04;-7.80;99.90
15107;DHT22;7654;45.308;-75.096;2023-11-21T03:03:35;-7.80;99.90
15107;DHT22;7654;45.308;-75.096;2023-11-21T03:06:08;-7.80;99.90
15107;DHT22;7654;45.308;-75.096;2023-11-21T03:08:40;-7.80;99.90
15107;DHT22;7654;45.308;-75.096;2023-11-21T03:11:11;-7.80;99.90
15107;DHT22;7654;45.308;-75.096;2023-11-21T03:13:42;-7.90;99.90
15107;DHT22;7654;45.308;-75.096;2023-11-21T03:16:14;-7.90;99.90
15107;DHT22;7654;45.308;-75.096;2023-11-21T03:18:45;-8.00;99.90
15107;DHT22;7654;45.308;-75.096;2023-11-21T03:21:15;-8.00;99.90
15107;DHT22;7654;45.308;-75.096;2023-11-21T03:23:48;-8.00;99.90
15107;DHT22;7654;45.308;-75.096;2023-11-21T03:26:19;-8.00;99.90
15107;DHT22;7654;45.308;-75.096;2023-11-21T03:28:49;-8.00;99.90
15107;DHT22;7654;45.308;-75.096;2023-11-21T03:31:22;-8.00;99.90
15107;DHT22;7654;45.308;-75.096;2023-11-21T03:33:53;-8.00;99.90
15107;DHT22;7654;45.308;-75.096;2023-11-21T03:36:23;-8.10;99.90
15107;DHT22;7654;45.308;-75.096;2023-11-21T03:38:56;-8.10;99.90
15107;DHT22;7654;45.308;-75.096;2023-11-21T03:41:26;-8.20;99.90
15107;DHT22;7654;45.308;-75.096;2023-11-21T03:43:56;-8.30;99.90
15107;DHT22;7654;45.308;-75.096;2023-11-21T03:46:27;-8.30;99.90
15107;DHT22;7654;45.308;-75.096;2023-11-21T03:48:58;-8.20;99.90
15107;DHT22;7654;45.308;-75.096;2023-11-21T03:51:28;-8.20;99.90
15107;DHT22;7654;45.308;-75.096;2023-11-21T03:54:00;-8.20;99.90
15107;DHT22;7654;45.308;-75.096;2023-11-21T03:56:30;-8.30;99.90
15107;DHT22;7654;45.308;-75.096;2023-11-21T03:59:01;-8.40;99.90
15107;DHT22;7654;45.308;-75.096;2023-11-21T04:01:31;-8.50;99.90
15107;DHT22;7654;45.308;-75.096;2023-11-21T04:04:02;-8.60;99.90
15107;DHT22;7654;45.308;-75.096;2023-11-21T04:06:32;-8.50;99.90
15107;DHT22;7654;45.308;-75.096;2023-11-21T04:09:06;-8.50;99.90
15107;DHT22;7654;45.308;-75.096;2023-11-21T04:11:36;-8.70;99.90
15107;DHT22;7654;45.308;-75.096;2023-11-21T04:14:06;-8.70;99.90
15107;DHT22;7654;45.308;-75.096;2023-11-21T04:16:37;-8.60;99.90
15107;DHT22;7654;45.308;-75.096;2023-11-21T04:19:07;-8.70;99.90
15107;DHT22;7654;45.308;-75.096;2023-11-21T04:21:39;-8.80;99.90
15107;DHT22;7654;45.308;-75.096;2023-11-21T04:24:11;-8.80;99.90
15107;DHT22;7654;45.308;-75.096;2023-11-21T04:26:41;-8.70;99.90
15107;DHT22;7654;45.308;-75.096;2023-11-21T04:29:12;-8.60;99.90
15107;DHT22;7654;45.308;-75.096;2023-11-21T04:31:43;-8.50;99.90
15107;DHT22;7654;45.308;-75.096;2023-11-21T04:34:13;-8.50;99.90
15107;DHT22;7654;45.308;-75.096;2023-11-21T04:36:44;-8.40;99.90
15107;DHT22;7654;45.308;-75.096;2023-11-21T04:39:16;-8.40;99.90
15107;DHT22;7654;45.308;-75.096;2023-11-21T04:41:46;-8.50;99.90
15107;DHT22;7654;45.308;-75.096;2023-11-21T04:44:16;-8.60;99.90
15107;DHT22;7654;45.308;-75.096;2023-11-21T04:46:47;-8.70;99.90
15107;DHT22;7654;45.308;-75.096;2023-11-21T04:49:17;-8.80;99.90
15107;DHT22;7654;45.308;-75.096;2023-11-21T04:51:48;-8.90;99.90
15107;DHT22;7654;45.308;-75.096;2023-11-21T04:54:20;-9.00;99.90
15107;DHT22;7654;45.308;-75.096;2023-11-21T04:56:54;-9.10;99.90
15107;DHT22;7654;45.308;-75.096;2023-11-21T04:59:25;-9.20;99.90
15107;DHT22;7654;45.308;-75.096;2023-11-21T05:01:55;-9.20;99.90
15107;DHT22;7654;45.308;-75.096;2023-11-21T05:04:25;-9.10;99.90
15107;DHT22;7654;45.308;-75.096;2023-11-21T05:06:56;-9.10;99.90
15107;DHT22;7654;45.308;-75.096;2023-11-21T05:09:28;-9.10;99.90
15107;DHT22;7654;45.308;-75.096;2023-11-21T05:12:00;-9.10;99.90
15107;DHT22;7654;45.308;-75.096;2023-11-21T05:14:31;-9.00;99.90
15107;DHT22;7654;45.308;-75.096;2023-11-21T05:17:02;-9.10;99.90
15107;DHT22;7654;45.308;-75.096;2023-11-21T05:19:33;-9.00;99.90
15107;DHT22;7654;45.308;-75.096;2023-11-21T05:22:05;-8.90;99.90
15107;DHT22;7654;45.308;-75.096;2023-11-21T05:24:38;-8.80;99.90
15107;DHT22;7654;45.308;-75.096;2023-11-21T05:27:08;-8.60;99.90
15107;DHT22;7654;45.308;-75.096;2023-11-21T05:29:39;-8.60;99.90
15107;DHT22;7654;45.308;-75.096;2023-11-21T05:32:09;-8.70;99.90
15107;DHT22;7654;45.308;-75.096;2023-11-21T05:34:40;-8.70;99.90
15107;DHT22;7654;45.308;-75.096;2023-11-21T05:37:11;-8.80;99.90
15107;DHT22;7654;45.308;-75.096;2023-11-21T05:39:44;-8.90;99.90
15107;DHT22;7654;45.308;-75.096;2023-11-21T05:42:15;-9.00;99.90
15107;DHT22;7654;45.308;-75.096;2023-11-21T05:44:45;-9.00;99.90
15107;DHT22;7654;45.308;-75.096;2023-11-21T05:47:15;-9.00;99.90
15107;DHT22;7654;45.308;-75.096;2023-11-21T05:49:46;-8.90;99.90
15107;DHT22;7654;45.308;-75.096;2023-11-21T05:52:19;-9.00;99.90
15107;DHT22;7654;45.308;-75.096;2023-11-21T05:54:51;-9.10;99.90
15107;DHT22;7654;45.308;-75.096;2023-11-21T05:57:21;-9.20;99.90
15107;DHT22;7654;45.308;-75.096;2023-11-21T05:59:52;-9.20;99.90
15107;DHT22;7654;45.308;-75.096;2023-11-21T06:02:23;-9.20;99.90
15107;DHT22;7654;45.308;-75.096;2023-11-21T06:04:54;-9.20;99.90
15107;DHT22;7654;45.308;-75.096;2023-11-21T06:07:24;-9.20;99.90
15107;DHT22;7654;45.308;-75.096;2023-11-21T06:09:58;-9.30;99.90
15107;DHT22;7654;45.308;-75.096;2023-11-21T06:12:31;-9.30;99.90
15107;DHT22;7654;45.308;-75.096;2023-11-21T06:15:04;-9.30;99.90
15107;DHT22;7654;45.308;-75.096;2023-11-21T06:17:36;-9.20;99.90
15107;DHT22;7654;45.308;-75.096;2023-11-21T06:20:08;-9.20;99.90
15107;DHT22;7654;45.308;-75.096;2023-11-21T06:22:43;-9.20;99.90
15107;DHT22;7654;45.308;-75.096;2023-11-21T06:25:15;-9.20;99.90
15107;DHT22;7654;45.308;-75.096;2023-11-21T06:27:47;-9.20;99.90
15107;DHT22;7654;45.308;-75.096;2023-11-21T06:30:18;-9.20;99.90
15107;DHT22;7654;45.308;-75.096;2023-11-21T06:32:48;-9.20;99.90
15107;DHT22;7654;45.308;-75.096;2023-11-21T06:35:19;-9.10;99.90
15107;DHT22;7654;45.308;-75.096;2023-11-21T06:37:50;-9.20;99.90
15107;DHT22;7654;45.308;-75.096;2023-11-21T06:40:23;-9.30;99.90
15107;DHT22;7654;45.308;-75.096;2023-11-21T06:42:53;-9.30;99.90
15107;DHT22;7654;45.308;-75.096;2023-11-21T06:45:23;-9.20;99.90
15107;DHT22;7654;45.308;-75.096;2023-11-21T06:47:54;-9.30;99.90
15107;DHT22;7654;45.308;-75.096;2023-11-21T06:50:25;-9.30;99.90
15107;DHT22;7654;45.308;-75.096;2023-11-21T06:52:55;-9.30;99.90
15107;DHT22;7654;45.308;-75.096;2023-11-21T06:55:27;-9.30;99.90
15107;DHT22;7654;45.308;-75.096;2023-11-21T06:57:57;-9.30;99.90
15107;DHT22;7654;45.308;-75.096;2023-11-21T07:00:28;-9.40;99.90
15107;DHT22;7654;45.308;-75.096;2023-11-21T07:02:59;-9.40;99.90
15107;DHT22;7654;45.308;-75.096;2023-11-21T07:05:29;-9.40;99.90
15107;DHT22;7654;45.308;-75.096;2023-11-21T07:08:00;-9.40;99.90
15107;DHT22;7654;45.308;-75.096;2023-11-21T07:10:35;-9.30;99.90
15107;DHT22;7654;45.308;-75.096;2023-11-21T07:13:06;-9.30;99.90
15107;DHT22;7654;45.308;-75.096;2023-11-21T07:15:41;-9.30;99.90
15107;DHT22;7654;45.308;-75.096;2023-11-21T07:18:11;-9.40;99.90
15107;DHT22;7654;45.308;-75.096;2023-11-21T07:20:42;-9.40;99.90
15107;DHT22;7654;45.308;-75.096;2023-11-21T07:23:12;-9.40;99.90
15107;DHT22;7654;45.308;-75.096;2023-11-21T07:25:45;-9.50;99.90
15107;DHT22;7654;45.308;-75.096;2023-11-21T07:28:16;-9.50;99.90
15107;DHT22;7654;45.308;-75.096;2023-11-21T07:30:46;-9.60;99.90
15107;DHT22;7654;45.308;-75.096;2023-11-21T07:33:17;-9.50;99.90
15107;DHT22;7654;45.308;-75.096;2023-11-21T07:35:47;-9.50;99.90
15107;DHT22;7654;45.308;-75.096;2023-11-21T07:38:18;-9.50;99.90
15107;DHT22;7654;45.308;-75.096;2023-11-21T07:40:50;-9.50;99.90
15107;DHT22;7654;45.308;-75.096;2023-11-21T07:43:21;-9.50;99.90
15107;DHT22;7654;45.308;-75.096;2023-11-21T07:45:51;-9.50;99.90
15107;DHT22;7654;45.308;-75.096;2023-11-21T07:48:21;-9.50;99.90
15107;DHT22;7654;45.308;-75.096;2023-11-21T07:50:52;-9.50;99.90
15107;DHT22;7654;45.308;-75.096;2023-11-21T07:53:22;-9.30;99.90
15107;DHT22;7654;45.308;-75.096;2023-11-21T07:55:55;-9.40;99.90
15107;DHT22;7654;45.308;-75.096;2023-11-21T07:58:25;-9.50;99.90
15107;DHT22;7654;45.308;-75.096;2023-11-21T08:00:56;-9.50;99.90
15107;DHT22;7654;45.308;-75.096;2023-11-21T08:03:26;-9.50;99.90
15107;DHT22;7654;45.308;-75.096;2023-11-21T08:05:58;-9.60;99.90
15107;DHT22;7654;45.308;-75.096;2023-11-21T08:08:31;-9.60;99.90
15107;DHT22;7654;45.308;-75.096;2023-11-21T08:11:04;-9.60;99.90
15107;DHT22;7654;45.308;-75.096;2023-11-21T08:13:36;-9.60;99.90
15107;DHT22;7654;45.308;-75.096;2023-11-21T08:16:07;-9.60;99.90
15107;DHT22;7654;45.308;-75.096;2023-11-21T08:18:38;-9.70;99.90
15107;DHT22;7654;45.308;-75.096;2023-11-21T08:21:09;-9.60;99.90
15107;DHT22;7654;45.308;-75.096;2023-11-21T08:23:42;-9.60;99.90
15107;DHT22;7654;45.308;-75.096;2023-11-21T08:26:16;-9.70;99.90
15107;DHT22;7654;45.308;-75.096;2023-11-21T08:28:47;-9.70;99.90
15107;DHT22;7654;45.308;-75.096;2023-11-21T08:31:17;-9.80;99.90
15107;DHT22;7654;45.308;-75.096;2023-11-21T08:33:53;-9.80;99.90
15107;DHT22;7654;45.308;-75.096;2023-11-21T08:36:25;-9.80;99.90
15107;DHT22;7654;45.308;-75.096;2023-11-21T08:38:55;-9.80;99.90
15107;DHT22;7654;45.308;-75.096;2023-11-21T08:41:27;-9.70;99.90
15107;DHT22;7654;45.308;-75.096;2023-11-21T08:43:58;-9.60;99.90
15107;DHT22;7654;45.308;-75.096;2023-11-21T08:46:29;-9.50;99.90
15107;DHT22;7654;45.308;-75.096;2023-11-21T08:49:00;-9.40;99.90
15107;DHT22;7654;45.308;-75.096;2023-11-21T08:51:31;-9.40;99.90
15107;DHT22;7654;45.308;-75.096;2023-11-21T08:54:02;-9.40;99.90
15107;DHT22;7654;45.308;-75.096;2023-11-21T08:56:37;-9.40;99.90
15107;DHT22;7654;45.308;-75.096;2023-11-21T08:59:07;-9.50;99.90
15107;DHT22;7654;45.308;-75.096;2023-11-21T09:01:38;-9.50;99.90
15107;DHT22;7654;45.308;-75.096;2023-11-21T09:04:08;-9.60;99.90
15107;DHT22;7654;45.308;-75.096;2023-11-21T09:06:40;-9.50;99.90
15107;DHT22;7654;45.308;-75.096;2023-11-21T09:09:11;-9.60;99.90
15107;DHT22;7654;45.308;-75.096;2023-11-21T09:11:43;-9.60;99.90
15107;DHT22;7654;45.308;-75.096;2023-11-21T09:14:14;-9.50;99.90
15107;DHT22;7654;45.308;-75.096;2023-11-21T09:16:46;-9.50;99.90
15107;DHT22;7654;45.308;-75.096;2023-11-21T09:19:17;-9.30;99.90
15107;DHT22;7654;45.308;-75.096;2023-11-21T09:21:47;-9.40;99.90
15107;DHT22;7654;45.308;-75.096;2023-11-21T09:24:18;-9.50;99.90
15107;DHT22;7654;45.308;-75.096;2023-11-21T09:26:50;-9.50;99.90
15107;DHT22;7654;45.308;-75.096;2023-11-21T09:29:20;-9.30;99.90
15107;DHT22;7654;45.308;-75.096;2023-11-21T09:31:50;-9.30;99.90
15107;DHT22;7654;45.308;-75.096;2023-11-21T09:34:23;-9.30;99.90
15107;DHT22;7654;45.308;-75.096;2023-11-21T09:36:54;-9.20;99.90
15107;DHT22;7654;45.308;-75.096;2023-11-21T09:39:24;-9.20;99.90
15107;DHT22;7654;45.308;-75.096;2023-11-21T09:41:59;-9.30;99.90
15107;DHT22;7654;45.308;-75.096;2023-11-21T09:44:36;-9.30;99.90
15107;DHT22;7654;45.308;-75.096;2023-11-21T09:47:11;-9.30;99.90
15107;DHT22;7654;45.308;-75.096;2023-11-21T09:49:47;-9.30;99.90
15107;DHT22;7654;45.308;-75.096;2023-11-21T09:52:24;-9.30;99.90
15107;DHT22;7654;45.308;-75.096;2023-11-21T09:54:55;-9.30;99.90
15107;DHT22;7654;45.308;-75.096;2023-11-21T09:57:28;-9.40;99.90
15107;DHT22;7654;45.308;-75.096;2023-11-21T10:00:00;-9.40;99.90
15107;DHT22;7654;45.308;-75.096;2023-11-21T10:02:33;-9.50;99.90
15107;DHT22;7654;45.308;-75.096;2023-11-21T10:05:07;-9.40;99.90
15107;DHT22;7654;45.308;-75.096;2023-11-21T10:07:38;-9.30;99.90
15107;DHT22;7654;45.308;-75.096;2023-11-21T10:10:10;-9.30;99.90
15107;DHT22;7654;45.308;-75.096;2023-11-21T10:12:43;-9.40;99.90
15107;DHT22;7654;45.308;-75.096;2023-11-21T10:15:14;-9.30;99.90
15107;DHT22;7654;45.308;-75.096;2023-11-21T10:17:47;-9.30;99.90
15107;DHT22;7654;45.308;-75.096;2023-11-21T10:20:19;-9.30;99.90
15107;DHT22;7654;45.308;-75.096;2023-11-21T10:22:49;-9.40;99.90
15107;DHT22;7654;45.308;-75.096;2023-11-21T10:25:20;-9.30;99.90
15107;DHT22;7654;45.308;-75.096;2023-11-21T10:27:58;-9.20;99.90
15107;DHT22;7654;45.308;-75.096;2023-11-21T10:30:33;-9.00;99.90
15107;DHT22;7654;45.308;-75.096;2023-11-21T10:33:05;-8.90;99.90
15107;DHT22;7654;45.308;-75.096;2023-11-21T10:35:42;-8.70;99.90
15107;DHT22;7654;45.308;-75.096;2023-11-21T10:38:15;-8.40;99.90
15107;DHT22;7654;45.308;-75.096;2023-11-21T10:40:45;-8.30;99.90
15107;DHT22;7654;45.308;-75.096;2023-11-21T10:43:19;-8.20;99.90
15107;DHT22;7654;45.308;-75.096;2023-11-21T10:45:49;-8.20;99.90
15107;DHT22;7654;45.308;-75.096;2023-11-21T10:48:21;-8.20;99.90
15107;DHT22;7654;45.308;-75.096;2023-11-21T10:50:51;-8.10;99.90
15107;DHT22;7654;45.308;-75.096;2023-11-21T10:53:23;-8.10;99.90
15107;DHT22;7654;45.308;-75.096;2023-11-21T10:56:02;-8.10;99.90
15107;DHT22;7654;45.308;-75.096;2023-11-21T10:58:36;-8.00;99.90
15107;DHT22;7654;45.308;-75.096;2023-11-21T11:01:07;-7.90;99.90
15107;DHT22;7654;45.308;-75.096;2023-11-21T11:03:40;-7.90;99.90
15107;DHT22;7654;45.308;-75.096;2023-11-21T11:06:11;-8.00;99.90
15107;DHT22;7654;45.308;-75.096;2023-11-21T11:08:42;-8.00;99.90
15107;DHT22;7654;45.308;-75.096;2023-11-21T11:11:14;-8.10;99.90
15107;DHT22;7654;45.308;-75.096;2023-11-21T11:13:46;-8.10;99.90
15107;DHT22;7654;45.308;-75.096;2023-11-21T11:16:16;-8.20;99.90
15107;DHT22;7654;45.308;-75.096;2023-11-21T11:18:47;-8.20;99.90
15107;DHT22;7654;45.308;-75.096;2023-11-21T11:21:25;-8.20;99.90
15107;DHT22;7654;45.308;-75.096;2023-11-21T11:24:11;-8.10;99.90
15107;DHT22;7654;45.308;-75.096;2023-11-21T11:26:47;-8.20;99.90
15107;DHT22;7654;45.308;-75.096;2023-11-21T11:29:34;-8.10;99.90
15107;DHT22;7654;45.308;-75.096;2023-11-21T11:32:21;-8.10;99.90
15107;DHT22;7654;45.308;-75.096;2023-11-21T11:34:59;-8.20;99.90
15107;DHT22;7654;45.308;-75.096;2023-11-21T11:37:32;-8.10;99.90
15107;DHT22;7654;45.308;-75.096;2023-11-21T11:40:06;-8.10;99.90
15107;DHT22;7654;45.308;-75.096;2023-11-21T11:42:37;-8.20;99.90
15107;DHT22;7654;45.308;-75.096;2023-11-21T11:45:19;-8.30;99.90
15107;DHT22;7654;45.308;-75.096;2023-11-21T11:47:57;-8.40;99.90
15107;DHT22;7654;45.308;-75.096;2023-11-21T11:50:27;-8.30;99.90
15107;DHT22;7654;45.308;-75.096;2023-11-21T11:53:14;-8.40;99.90
15107;DHT22;7654;45.308;-75.096;2023-11-21T11:55:44;-8.50;99.90
15107;DHT22;7654;45.308;-75.096;2023-11-21T11:58:16;-8.50;99.90
15107;DHT22;7654;45.308;-75.096;2023-11-21T12:00:50;-8.50;99.90
15107;DHT22;7654;45.308;-75.096;2023-11-21T12:03:23;-8.60;99.90
15107;DHT22;7654;45.308;-75.096;2023-11-21T12:05:53;-8.70;99.90
15107;DHT22;7654;45.308;-75.096;2023-11-21T12:08:29;-8.80;99.90
15107;DHT22;7654;45.308;-75.096;2023-11-21T12:11:02;-8.90;99.90
15107;DHT22;7654;45.308;-75.096;2023-11-21T12:13:32;-8.90;99.90
15107;DHT22;7654;45.308;-75.096;2023-11-21T12:16:05;-8.70;99.90
15107;DHT22;7654;45.308;-75.096;2023-11-21T12:18:36;-8.80;99.90
15107;DHT22;7654;45.308;-75.096;2023-11-21T12:21:07;-8.60;99.90
15107;DHT22;7654;45.308;-75.096;2023-11-21T12:23:38;-8.50;99.90
15107;DHT22;7654;45.308;-75.096;2023-11-21T12:26:09;-8.30;99.90
15107;DHT22;7654;45.308;-75.096;2023-11-21T12:28:39;-8.30;99.90
15107;DHT22;7654;45.308;-75.096;2023-11-21T12:31:11;-8.10;99.90
15107;DHT22;7654;45.308;-75.096;2023-11-21T12:33:49;-8.00;99.90
15107;DHT22;7654;45.308;-75.096;2023-11-21T12:36:19;-7.90;99.90
15107;DHT22;7654;45.308;-75.096;2023-11-21T12:38:50;-7.70;99.90
15107;DHT22;7654;45.308;-75.096;2023-11-21T12:41:20;-7.70;99.90
15107;DHT22;7654;45.308;-75.096;2023-11-21T12:43:51;-7.60;99.90
15107;DHT22;7654;45.308;-75.096;2023-11-21T12:46:23;-7.50;99.90
15107;DHT22;7654;45.308;-75.096;2023-11-21T12:48:57;-7.50;99.90
15107;DHT22;7654;45.308;-75.096;2023-11-21T12:51:28;-7.30;99.90
15107;DHT22;7654;45.308;-75.096;2023-11-21T12:53:59;-7.20;99.90
15107;DHT22;7654;45.308;-75.096;2023-11-21T12:56:29;-7.00;99.90
15107;DHT22;7654;45.308;-75.096;2023-11-21T12:58:59;-6.80;99.90
15107;DHT22;7654;45.308;-75.096;2023-11-21T13:01:35;-6.70;99.90
15107;DHT22;7654;45.308;-75.096;2023-11-21T13:04:08;-6.60;99.90
15107;DHT22;7654;45.308;-75.096;2023-11-21T13:06:39;-6.60;99.90
15107;DHT22;7654;45.308;-75.096;2023-11-21T13:09:10;-6.50;99.90
15107;DHT22;7654;45.308;-75.096;2023-11-21T13:11:42;-6.40;99.90
15107;DHT22;7654;45.308;-75.096;2023-11-21T13:14:13;-6.50;99.90
15107;DHT22;7654;45.308;-75.096;2023-11-21T13:16:46;-6.40;99.90
15107;DHT22;7654;45.308;-75.096;2023-11-21T13:19:17;-6.30;99.90
15107;DHT22;7654;45.308;-75.096;2023-11-21T13:21:50;-6.20;99.90
15107;DHT22;7654;45.308;-75.096;2023-11-21T13:24:21;-6.10;99.90
15107;DHT22;7654;45.308;-75.096;2023-11-21T13:26:51;-6.00;99.90
15107;DHT22;7654;45.308;-75.096;2023-11-21T13:29:22;-5.90;99.90
15107;DHT22;7654;45.308;-75.096;2023-11-21T13:31:55;-5.90;99.90
15107;DHT22;7654;45.308;-75.096;2023-11-21T13:34:27;-5.80;99.90
15107;DHT22;7654;45.308;-75.096;2023-11-21T13:37:01;-5.70;99.90
15107;DHT22;7654;45.308;-75.096;2023-11-21T13:39:32;-5.60;99.90
15107;DHT22;7654;45.308;-75.096;2023-11-21T13:42:04;-5.50;99.90
15107;DHT22;7654;45.308;-75.096;2023-11-21T13:44:34;-5.40;99.90
15107;DHT22;7654;45.308;-75.096;2023-11-21T13:47:08;-5.30;99.90
15107;DHT22;7654;45.308;-75.096;2023-11-21T13:49:38;-5.10;99.90
15107;DHT22;7654;45.308;-75.096;2023-11-21T13:52:10;-5.00;99.90
15107;DHT22;7654;45.308;-75.096;2023-11-21T13:54:44;-4.90;99.90
15107;DHT22;7654;45.308;-75.096;2023-11-21T13:57:16;-4.70;99.90
15107;DHT22;7654;45.308;-75.096;2023-11-21T13:59:46;-4.60;99.90
15107;DHT22;7654;45.308;-75.096;2023-11-21T14:02:19;-4.50;99.90
15107;DHT22;7654;45.308;-75.096;2023-11-21T14:04:56;-4.30;99.90
15107;DHT22;7654;45.308;-75.096;2023-11-21T14:07:29;-4.20;99.90
15107;DHT22;7654;45.308;-75.096;2023-11-21T14:10:05;-4.00;99.90
15107;DHT22;7654;45.308;-75.096;2023-11-21T14:12:41;-3.90;99.90
15107;DHT22;7654;45.308;-75.096;2023-11-21T14:15:11;-3.70;99.90
15107;DHT22;7654;45.308;-75.096;2023-11-21T14:17:48;-3.60;99.90
15107;DHT22;7654;45.308;-75.096;2023-11-21T14:20:19;-3.50;99.90
15107;DHT22;7654;45.308;-75.096;2023-11-21T14:22:49;-3.40;99.90
15107;DHT22;7654;45.308;-75.096;2023-11-21T14:25:20;-3.30;99.90
15107;DHT22;7654;45.308;-75.096;2023-11-21T14:27:51;-3.20;99.90
15107;DHT22;7654;45.308;-75.096;2023-11-21T14:30:21;-3.10;99.90
15107;DHT22;7654;45.308;-75.096;2023-11-21T14:32:53;-3.10;99.90
15107;DHT22;7654;45.308;-75.096;2023-11-21T14:35:24;-3.00;99.90
15107;DHT22;7654;45.308;-75.096;2023-11-21T14:37:54;-2.90;99.90
15107;DHT22;7654;45.308;-75.096;2023-11-21T14:40:26;-2.90;99.90
15107;DHT22;7654;45.308;-75.096;2023-11-21T14:43:01;-2.80;99.90
15107;DHT22;7654;45.308;-75.096;2023-11-21T14:45:34;-2.70;99.90
15107;DHT22;7654;45.308;-75.096;2023-11-21T14:48:13;-2.60;99.90
15107;DHT22;7654;45.308;-75.096;2023-11-21T14:50:54;-2.50;99.90
15107;DHT22;7654;45.308;-75.096;2023-11-21T14:53:47;-2.40;99.90
15107;DHT22;7654;45.308;-75.096;2023-11-21T14:56:22;-2.30;99.90
15107;DHT22;7654;45.308;-75.096;2023-11-21T14:58:55;-2.20;99.90
15107;DHT22;7654;45.308;-75.096;2023-11-21T15:01:33;-2.10;99.90
15107;DHT22;7654;45.308;-75.096;2023-11-21T15:04:25;-2.00;99.90
15107;DHT22;7654;45.308;-75.096;2023-11-21T15:07:05;-1.90;99.90
15107;DHT22;7654;45.308;-75.096;2023-11-21T15:09:34;-1.80;99.90
15107;DHT22;7654;45.308;-75.096;2023-11-21T15:12:10;-1.70;99.90
15107;DHT22;7654;45.308;-75.096;2023-11-21T15:14:49;-1.70;99.90
15107;DHT22;7654;45.308;-75.096;2023-11-21T15:17:21;-1.60;99.90
15107;DHT22;7654;45.308;-75.096;2023-11-21T15:19:57;-1.50;99.90
15107;DHT22;7654;45.308;-75.096;2023-11-21T15:22:28;-1.40;99.90
15107;DHT22;7654;45.308;-75.096;2023-11-21T15:24:58;-1.30;99.90
15107;DHT22;7654;45.308;-75.096;2023-11-21T15:27:36;-1.20;99.90
15107;DHT22;7654;45.308;-75.096;2023-11-21T15:30:08;-1.20;99.90
15107;DHT22;7654;45.308;-75.096;2023-11-21T15:32:39;-1.10;99.90
15107;DHT22;7654;45.308;-75.096;2023-11-21T15:35:11;-1.00;99.90
15107;DHT22;7654;45.308;-75.096;2023-11-21T15:37:43;-1.00;99.90
15107;DHT22;7654;45.308;-75.096;2023-11-21T15:40:13;-0.90;99.90
15107;DHT22;7654;45.308;-75.096;2023-11-21T15:42:45;-0.80;99.90
15107;DHT22;7654;45.308;-75.096;2023-11-21T15:45:16;-0.60;99.90